sensor_id;sensor_type;location;lat;lon;timestamp;pressure;altitude;pressure_sealevel;temperature;humidity
51123;BME280;37162;41.724;13.346;2023-06-26T00:01:15;96621.16;;;22.34;72.62
51123;BME280;37162;41.724;13.346;2023-06-26T00:03:40;96620.34;;;22.33;72.65
51123;BME280;37162;41.724;13.346;2023-06-26T00:06:06;96623.06;;;22.33;72.88
51123;BME280;37162;41.724;13.346;2023-06-26T00:08:31;96621.16;;;22.34;73.02
51123;BME280;37162;41.724;13.346;2023-06-26T00:10:57;96614.94;;;22.28;72.83
51123;BME280;37162;41.724;13.346;2023-06-26T00:13:23;96606.53;;;22.30;73.08
51123;BME280;37162;41.724;13.346;2023-06-26T00:15:49;96614.13;;;22.33;72.57
51123;BME280;37162;41.724;13.346;2023-06-26T00:18:14;96620.63;;;22.32;73.16
51123;BME280;37162;41.724;13.346;2023-06-26T00:20:40;96614.41;;;22.31;72.90
51123;BME280;37162;41.724;13.346;2023-06-26T00:23:05;96612.50;;;22.32;72.72
51123;BME280;37162;41.724;13.346;2023-06-26T00:25:33;96610.63;;;22.32;72.71
51123;BME280;37162;41.724;13.346;2023-06-26T00:27:58;96608.44;;;22.29;72.58
51123;BME280;37162;41.724;13.346;2023-06-26T00:30:24;96607.09;;;22.32;72.71
51123;BME280;37162;41.724;13.346;2023-06-26T00:32:49;96607.09;;;22.32;72.89
51123;BME280;37162;41.724;13.346;2023-06-26T00:35:16;96608.72;;;22.33;72.68
51123;BME280;37162;41.724;13.346;2023-06-26T00:37:41;96597.09;;;22.27;72.48
51123;BME280;37162;41.724;13.346;2023-06-26T00:40:07;96605.19;;;22.32;73.09
51123;BME280;37162;41.724;13.346;2023-06-26T00:42:33;96587.34;;;22.26;72.81
51123;BME280;37162;41.724;13.346;2023-06-26T00:44:58;96603.31;;;22.33;72.68
51123;BME280;37162;41.724;13.346;2023-06-26T00:47:24;96593.56;;;22.32;72.58
51123;BME280;37162;41.724;13.346;2023-06-26T00:49:50;96591.94;;;22.31;72.77
51123;BME280;37162;41.724;13.346;2023-06-26T00:52:17;96583.28;;;22.29;72.86
51123;BME280;37162;41.724;13.346;2023-06-26T00:54:42;96583.81;;;22.31;72.73
51123;BME280;37162;41.724;13.346;2023-06-26T00:57:08;96583.03;;;22.30;72.67
51123;BME280;37162;41.724;13.346;2023-06-26T00:59:34;96580.31;;;22.30;72.65
51123;BME280;37162;41.724;13.346;2023-06-26T01:01:59;96579.47;;;22.30;72.64
51123;BME280;37162;41.724;13.346;2023-06-26T01:04:25;96583.03;;;22.30;72.53
51123;BME280;37162;41.724;13.346;2023-06-26T01:06:54;96583.03;;;22.30;72.95
51123;BME280;37162;41.724;13.346;2023-06-26T01:09:21;96585.72;;;22.30;72.72
51123;BME280;37162;41.724;13.346;2023-06-26T01:11:47;96578.94;;;22.28;73.06
51123;BME280;37162;41.724;13.346;2023-06-26T01:14:13;96576.78;;;22.30;72.60
51123;BME280;37162;41.724;13.346;2023-06-26T01:16:40;96578.94;;;22.28;72.62
51123;BME280;37162;41.724;13.346;2023-06-26T01:19:10;96568.66;;;22.25;72.95
51123;BME280;37162;41.724;13.346;2023-06-26T01:21:42;96572.44;;;22.29;72.59
51123;BME280;37162;41.724;13.346;2023-06-26T01:24:15;96564.34;;;22.24;72.75
51123;BME280;37162;41.724;13.346;2023-06-26T01:26:46;96576.53;;;22.26;72.96
51123;BME280;37162;41.724;13.346;2023-06-26T01:29:15;96572.16;;;22.25;72.47
51123;BME280;37162;41.724;13.346;2023-06-26T01:31:42;96570.53;;;22.29;73.02
51123;BME280;37162;41.724;13.346;2023-06-26T01:34:09;96575.16;;;22.29;72.80
51123;BME280;37162;41.724;13.346;2023-06-26T01:36:35;96571.63;;;22.28;72.62
51123;BME280;37162;41.724;13.346;2023-06-26T01:39:02;96563.50;;;22.28;72.79
51123;BME280;37162;41.724;13.346;2023-06-26T01:41:27;96558.09;;;22.28;72.90
51123;BME280;37162;41.724;13.346;2023-06-26T01:49:29;96554.59;;;22.28;72.98
51123;BME280;37162;41.724;13.346;2023-06-26T01:52:12;96550.28;;;22.27;72.79
51123;BME280;37162;41.724;13.346;2023-06-26T01:57:39;96556.50;;;22.27;73.02
51123;BME280;37162;41.724;13.346;2023-06-26T02:00:05;96552.16;;;22.26;72.95
51123;BME280;37162;41.724;13.346;2023-06-26T02:02:35;96554.88;;;22.26;73.00
51123;BME280;37162;41.724;13.346;2023-06-26T02:05:01;96555.69;;;22.27;72.45
51123;BME280;37162;41.724;13.346;2023-06-26T02:07:27;96559.19;;;22.27;72.87
51123;BME280;37162;41.724;13.346;2023-06-26T02:09:52;96554.88;;;22.26;72.55
51123;BME280;37162;41.724;13.346;2023-06-26T02:12:17;96560.28;;;22.26;72.47
51123;BME280;37162;41.724;13.346;2023-06-26T02:14:43;96556.78;;;22.26;72.49
51123;BME280;37162;41.724;13.346;2023-06-26T02:17:09;96547.81;;;22.25;72.68
51123;BME280;37162;41.724;13.346;2023-06-26T02:19:34;96555.94;;;22.25;72.69
51123;BME280;37162;41.724;13.346;2023-06-26T02:22:00;96557.81;;;22.25;72.39
51123;BME280;37162;41.724;13.346;2023-06-26T02:24:25;96560.53;;;22.25;72.16
51123;BME280;37162;41.724;13.346;2023-06-26T02:26:55;96558.63;;;22.25;72.71
51123;BME280;37162;41.724;13.346;2023-06-26T02:29:20;96557.81;;;22.25;72.46
51123;BME280;37162;41.724;13.346;2023-06-26T02:31:46;96553.78;;;22.22;72.07
51123;BME280;37162;41.724;13.346;2023-06-26T02:34:11;96554.31;;;22.24;72.11
51123;BME280;37162;41.724;13.346;2023-06-26T02:36:36;96551.59;;;22.24;72.49
51123;BME280;37162;41.724;13.346;2023-06-26T02:39:02;96550.81;;;22.24;72.49
51123;BME280;37162;41.724;13.346;2023-06-26T02:41:27;96559.72;;;22.24;72.58
51123;BME280;37162;41.724;13.346;2023-06-26T02:43:53;96556.22;;;22.24;72.38
51123;BME280;37162;41.724;13.346;2023-06-26T02:46:18;96560.81;;;22.23;72.09
51123;BME280;37162;41.724;13.346;2023-06-26T02:48:43;96560.53;;;22.19;72.44
51123;BME280;37162;41.724;13.346;2023-06-26T02:51:09;96560.00;;;22.23;72.54
51123;BME280;37162;41.724;13.346;2023-06-26T02:53:34;96568.94;;;22.23;72.21
51123;BME280;37162;41.724;13.346;2023-06-26T02:56:00;96568.94;;;22.23;72.12
51123;BME280;37162;41.724;13.346;2023-06-26T02:58:25;96565.41;;;22.23;72.51
51123;BME280;37162;41.724;13.346;2023-06-26T03:00:50;96560.00;;;22.23;72.53
51123;BME280;37162;41.724;13.346;2023-06-26T03:03:17;96570.03;;;22.22;72.35
51123;BME280;37162;41.724;13.346;2023-06-26T03:05:42;96559.22;;;22.17;72.20
51123;BME280;37162;41.724;13.346;2023-06-26T03:08:08;96563.25;;;22.19;72.15
51123;BME280;37162;41.724;13.346;2023-06-26T03:10:33;96566.50;;;22.22;72.07
51123;BME280;37162;41.724;13.346;2023-06-26T03:12:58;96563.00;;;22.21;72.54
51123;BME280;37162;41.724;13.346;2023-06-26T03:15:24;96554.88;;;22.21;72.54
51123;BME280;37162;41.724;13.346;2023-06-26T03:17:49;96564.88;;;22.20;72.29
51123;BME280;37162;41.724;13.346;2023-06-26T03:20:15;96558.13;;;22.18;72.42
51123;BME280;37162;41.724;13.346;2023-06-26T03:22:40;96566.50;;;22.22;72.29
51123;BME280;37162;41.724;13.346;2023-06-26T03:25:06;96565.69;;;22.21;72.15
51123;BME280;37162;41.724;13.346;2023-06-26T03:27:31;96568.41;;;22.21;72.60
51123;BME280;37162;41.724;13.346;2023-06-26T03:29:57;96563.53;;;22.18;72.57
51123;BME280;37162;41.724;13.346;2023-06-26T03:32:22;96567.56;;;22.20;72.11
51123;BME280;37162;41.724;13.346;2023-06-26T03:34:48;96572.97;;;22.20;72.52
51123;BME280;37162;41.724;13.346;2023-06-26T03:37:13;96571.13;;;22.21;72.07
51123;BME280;37162;41.724;13.346;2023-06-26T03:39:38;96562.97;;;22.16;72.48
51123;BME280;37162;41.724;13.346;2023-06-26T03:42:04;96575.69;;;22.20;72.50
51123;BME280;37162;41.724;13.346;2023-06-26T03:44:30;96580.28;;;22.20;72.48
51123;BME280;37162;41.724;13.346;2023-06-26T03:46:56;96576.78;;;22.19;71.99
51123;BME280;37162;41.724;13.346;2023-06-26T03:49:21;96578.69;;;22.19;72.29
51123;BME280;37162;41.724;13.346;2023-06-26T03:51:47;96578.69;;;22.19;71.93
51123;BME280;37162;41.724;13.346;2023-06-26T03:54:12;96577.06;;;22.18;72.08
51123;BME280;37162;41.724;13.346;2023-06-26T03:56:37;96575.16;;;22.18;72.17
51123;BME280;37162;41.724;13.346;2023-06-26T03:59:03;96577.88;;;22.18;72.43
51123;BME280;37162;41.724;13.346;2023-06-26T04:01:29;96574.34;;;22.18;72.06
51123;BME280;37162;41.724;13.346;2023-06-26T04:03:54;96585.97;;;22.18;71.88
51123;BME280;37162;41.724;13.346;2023-06-26T04:06:20;96590.59;;;22.18;72.50
51123;BME280;37162;41.724;13.346;2023-06-26T04:08:45;96587.88;;;22.18;71.96
51123;BME280;37162;41.724;13.346;2023-06-26T04:11:11;96584.09;;;22.19;72.45
51123;BME280;37162;41.724;13.346;2023-06-26T04:13:36;96587.06;;;22.17;72.42
51123;BME280;37162;41.724;13.346;2023-06-26T04:16:01;96594.09;;;22.18;72.15
51123;BME280;37162;41.724;13.346;2023-06-26T04:18:27;96601.41;;;22.18;72.23
51123;BME280;37162;41.724;13.346;2023-06-26T04:21:09;96606.00;;;22.17;72.04
51123;BME280;37162;41.724;13.346;2023-06-26T04:23:36;96588.16;;;22.11;72.01
51123;BME280;37162;41.724;13.346;2023-06-26T04:26:02;96597.09;;;22.17;72.33
51123;BME280;37162;41.724;13.346;2023-06-26T04:28:28;96601.41;;;22.18;71.98
51123;BME280;37162;41.724;13.346;2023-06-26T04:30:53;96600.59;;;22.17;72.07
51123;BME280;37162;41.724;13.346;2023-06-26T04:33:19;96591.13;;;22.15;71.91
51123;BME280;37162;41.724;13.346;2023-06-26T04:35:44;96604.13;;;22.18;71.66
51123;BME280;37162;41.724;13.346;2023-06-26T04:38:14;96598.72;;;22.13;71.96
51123;BME280;37162;41.724;13.346;2023-06-26T04:40:40;96602.50;;;22.17;72.02
51123;BME280;37162;41.724;13.346;2023-06-26T04:43:05;96608.44;;;22.19;71.74
51123;BME280;37162;41.724;13.346;2023-06-26T04:45:31;96607.34;;;22.20;72.11
51123;BME280;37162;41.724;13.346;2023-06-26T04:47:56;96605.47;;;22.20;71.64
51123;BME280;37162;41.724;13.346;2023-06-26T04:50:22;96603.84;;;22.19;71.78
51123;BME280;37162;41.724;13.346;2023-06-26T04:52:47;96603.03;;;22.19;71.91
51123;BME280;37162;41.724;13.346;2023-06-26T04:55:13;96608.16;;;22.20;71.79
51123;BME280;37162;41.724;13.346;2023-06-26T04:57:38;96600.31;;;22.19;71.49
51123;BME280;37162;41.724;13.346;2023-06-26T05:00:04;96605.47;;;22.20;71.49
51123;BME280;37162;41.724;13.346;2023-06-26T05:02:35;96599.22;;;22.20;71.45
51123;BME280;37162;41.724;13.346;2023-06-26T05:05:01;96597.34;;;22.20;71.81
51123;BME280;37162;41.724;13.346;2023-06-26T05:07:26;96600.88;;;22.21;72.09
51123;BME280;37162;41.724;13.346;2023-06-26T05:09:51;96594.91;;;22.19;71.99
51123;BME280;37162;41.724;13.346;2023-06-26T05:12:18;96604.41;;;22.22;71.83
51123;BME280;37162;41.724;13.346;2023-06-26T05:14:44;96600.88;;;22.21;71.72
51123;BME280;37162;41.724;13.346;2023-06-26T05:17:10;96605.22;;;22.22;72.36
51123;BME280;37162;41.724;13.346;2023-06-26T05:19:36;96607.91;;;22.22;72.05
51123;BME280;37162;41.724;13.346;2023-06-26T05:22:01;96608.16;;;22.20;71.87
51123;BME280;37162;41.724;13.346;2023-06-26T05:24:33;96609.81;;;22.22;72.10
51123;BME280;37162;41.724;13.346;2023-06-26T05:27:00;96605.22;;;22.22;72.13
51123;BME280;37162;41.724;13.346;2023-06-26T05:29:25;96598.19;;;22.21;72.35
51123;BME280;37162;41.724;13.346;2023-06-26T05:31:51;96616.56;;;22.24;72.87
51123;BME280;37162;41.724;13.346;2023-06-26T05:34:19;96608.16;;;22.20;72.75
51123;BME280;37162;41.724;13.346;2023-06-26T05:36:49;96613.84;;;22.24;72.77
51123;BME280;37162;41.724;13.346;2023-06-26T05:39:16;96610.34;;;22.24;72.65
51123;BME280;37162;41.724;13.346;2023-06-26T05:41:44;96613.31;;;22.22;72.59
51123;BME280;37162;41.724;13.346;2023-06-26T05:44:10;96606.00;;;22.17;72.34
51123;BME280;37162;41.724;13.346;2023-06-26T05:46:35;96620.06;;;22.25;72.69
51123;BME280;37162;41.724;13.346;2023-06-26T05:49:01;96622.53;;;22.26;72.49
51123;BME280;37162;41.724;13.346;2023-06-26T05:51:27;96614.94;;;22.23;72.51
51123;BME280;37162;41.724;13.346;2023-06-26T05:53:53;96617.38;;;22.25;71.80
51123;BME280;37162;41.724;13.346;2023-06-26T05:56:19;96620.63;;;22.27;71.98
51123;BME280;37162;41.724;13.346;2023-06-26T05:58:45;96617.94;;;22.32;73.01
51123;BME280;37162;41.724;13.346;2023-06-26T06:01:11;96612.22;;;22.28;73.00
51123;BME280;37162;41.724;13.346;2023-06-26T06:03:36;96611.72;;;22.26;72.88
51123;BME280;37162;41.724;13.346;2023-06-26T06:06:03;96617.66;;;22.33;72.77
51123;BME280;37162;41.724;13.346;2023-06-26T06:08:28;96618.44;;;22.34;72.45
51123;BME280;37162;41.724;13.346;2023-06-26T06:10:54;96617.66;;;22.33;72.50
51123;BME280;37162;41.724;13.346;2023-06-26T06:13:19;96598.16;;;22.31;72.78
51123;BME280;37162;41.724;13.346;2023-06-26T06:15:45;96617.41;;;22.35;72.42
51123;BME280;37162;41.724;13.346;2023-06-26T06:18:10;96611.16;;;22.34;72.41
51123;BME280;37162;41.724;13.346;2023-06-26T06:20:36;96619.81;;;22.36;72.17
51123;BME280;37162;41.724;13.346;2023-06-26T06:23:01;96608.72;;;22.28;72.11
51123;BME280;37162;41.724;13.346;2023-06-26T06:25:26;96621.44;;;22.37;72.48
51123;BME280;37162;41.724;13.346;2023-06-26T06:27:52;96604.13;;;22.28;72.46
51123;BME280;37162;41.724;13.346;2023-06-26T06:30:17;96622.25;;;22.38;72.39
51123;BME280;37162;41.724;13.346;2023-06-26T06:32:43;96623.34;;;22.37;72.48
51123;BME280;37162;41.724;13.346;2023-06-26T06:35:08;96625.22;;;22.36;72.67
51123;BME280;37162;41.724;13.346;2023-06-26T06:37:38;96622.53;;;22.36;72.50
51123;BME280;37162;41.724;13.346;2023-06-26T06:40:05;96625.22;;;22.36;72.79
51123;BME280;37162;41.724;13.346;2023-06-26T06:42:32;96617.94;;;22.32;72.13
51123;BME280;37162;41.724;13.346;2023-06-26T06:44:58;96625.22;;;22.36;72.41
51123;BME280;37162;41.724;13.346;2023-06-26T06:47:24;96619.81;;;22.36;72.45
51123;BME280;37162;41.724;13.346;2023-06-26T06:49:49;96627.38;;;22.34;71.72
51123;BME280;37162;41.724;13.346;2023-06-26T06:52:15;96623.63;;;22.40;72.37
51123;BME280;37162;41.724;13.346;2023-06-26T06:54:57;96625.22;;;22.41;72.29
51123;BME280;37162;41.724;13.346;2023-06-26T06:57:26;96625.22;;;22.41;72.00
51123;BME280;37162;41.724;13.346;2023-06-26T06:59:52;96625.75;;;22.43;72.24
51123;BME280;37162;41.724;13.346;2023-06-26T07:02:17;96629.56;;;22.42;72.74
51123;BME280;37162;41.724;13.346;2023-06-26T07:04:43;96629.56;;;22.42;72.31
51123;BME280;37162;41.724;13.346;2023-06-26T07:07:08;96626.84;;;22.42;72.44
51123;BME280;37162;41.724;13.346;2023-06-26T07:09:34;96626.84;;;22.42;72.82
51123;BME280;37162;41.724;13.346;2023-06-26T07:11:59;96631.16;;;22.43;72.60
51123;BME280;37162;41.724;13.346;2023-06-26T07:14:25;96626.84;;;22.42;72.60
51123;BME280;37162;41.724;13.346;2023-06-26T07:16:50;96626.31;;;22.40;72.79
51123;BME280;37162;41.724;13.346;2023-06-26T07:19:16;96623.63;;;22.40;72.58
51123;BME280;37162;41.724;13.346;2023-06-26T07:21:41;96628.75;;;22.42;72.73
51123;BME280;37162;41.724;13.346;2023-06-26T07:24:08;96633.34;;;22.41;72.42
51123;BME280;37162;41.724;13.346;2023-06-26T07:26:34;96628.75;;;22.42;72.87
51123;BME280;37162;41.724;13.346;2023-06-26T07:28:59;96626.03;;;22.42;72.87
51123;BME280;37162;41.724;13.346;2023-06-26T07:31:24;96635.78;;;22.43;72.58
51123;BME280;37162;41.724;13.346;2023-06-26T07:33:50;96626.03;;;22.42;72.58
51123;BME280;37162;41.724;13.346;2023-06-26T07:36:15;96630.38;;;22.43;72.92
51123;BME280;37162;41.724;13.346;2023-06-26T07:38:40;96630.38;;;22.43;72.49
51123;BME280;37162;41.724;13.346;2023-06-26T07:41:06;96629.03;;;22.45;72.95
51123;BME280;37162;41.724;13.346;2023-06-26T07:43:31;96620.09;;;22.45;72.66
51123;BME280;37162;41.724;13.346;2023-06-26T07:45:57;96627.94;;;22.41;72.63
51123;BME280;37162;41.724;13.346;2023-06-26T07:48:25;96627.94;;;22.47;72.49
51123;BME280;37162;41.724;13.346;2023-06-26T07:50:51;96614.13;;;22.43;72.43
51123;BME280;37162;41.724;13.346;2023-06-26T07:53:16;96621.19;;;22.49;72.69
51123;BME280;37162;41.724;13.346;2023-06-26T07:55:42;96625.50;;;22.50;72.67
51123;BME280;37162;41.724;13.346;2023-06-26T07:58:08;96629.81;;;22.51;72.73
51123;BME280;37162;41.724;13.346;2023-06-26T08:00:34;96621.72;;;22.51;72.20
51123;BME280;37162;41.724;13.346;2023-06-26T08:02:59;96627.13;;;22.51;72.46
51123;BME280;37162;41.724;13.346;2023-06-26T08:05:25;96626.03;;;22.52;72.50
51123;BME280;37162;41.724;13.346;2023-06-26T08:07:50;96611.69;;;22.52;72.42
51123;BME280;37162;41.724;13.346;2023-06-26T08:10:16;96618.72;;;22.53;72.26
51123;BME280;37162;41.724;13.346;2023-06-26T08:12:42;96620.38;;;22.54;72.37
51123;BME280;37162;41.724;13.346;2023-06-26T08:15:13;96611.16;;;22.50;72.68
51123;BME280;37162;41.724;13.346;2023-06-26T08:17:38;96620.09;;;22.55;72.40
51123;BME280;37162;41.724;13.346;2023-06-26T08:20:04;96618.19;;;22.56;72.67
51123;BME280;37162;41.724;13.346;2023-06-26T08:22:33;96627.63;;;22.58;72.55
51123;BME280;37162;41.724;13.346;2023-06-26T08:24:58;96612.25;;;22.54;72.46
51123;BME280;37162;41.724;13.346;2023-06-26T08:27:24;96619.50;;;22.58;72.69
51123;BME280;37162;41.724;13.346;2023-06-26T08:29:50;96621.69;;;22.56;72.23
51123;BME280;37162;41.724;13.346;2023-06-26T08:32:15;96620.06;;;22.60;72.52
51123;BME280;37162;41.724;13.346;2023-06-26T08:34:41;96627.09;;;22.66;72.75
51123;BME280;37162;41.724;13.346;2023-06-26T08:37:06;96628.44;;;22.79;72.51
51123;BME280;37162;41.724;13.346;2023-06-26T08:39:34;96630.06;;;22.90;72.62
51123;BME280;37162;41.724;13.346;2023-06-26T08:42:00;96626.25;;;23.02;71.77
51123;BME280;37162;41.724;13.346;2023-06-26T08:44:25;96621.34;;;23.14;71.48
51123;BME280;37162;41.724;13.346;2023-06-26T08:46:51;96624.84;;;23.19;71.32
51123;BME280;37162;41.724;13.346;2023-06-26T08:49:28;96625.91;;;23.18;71.10
51123;BME280;37162;41.724;13.346;2023-06-26T08:52:01;96627.31;;;23.16;70.73
51123;BME280;37162;41.724;13.346;2023-06-26T08:54:33;96621.63;;;23.12;71.03
51123;BME280;37162;41.724;13.346;2023-06-26T08:56:59;96630.56;;;23.08;70.93
51123;BME280;37162;41.724;13.346;2023-06-26T08:59:25;96624.06;;;23.04;71.29
51123;BME280;37162;41.724;13.346;2023-06-26T09:01:51;96626.81;;;22.99;71.28
51123;BME280;37162;41.724;13.346;2023-06-26T09:04:17;96631.13;;;23.00;71.07
51123;BME280;37162;41.724;13.346;2023-06-26T09:06:43;96628.69;;;22.98;71.55
51123;BME280;37162;41.724;13.346;2023-06-26T09:09:10;96630.06;;;22.95;71.55
51123;BME280;37162;41.724;13.346;2023-06-26T09:11:37;96626.53;;;22.95;71.58
51123;BME280;37162;41.724;13.346;2023-06-26T09:14:04;96631.16;;;22.94;71.54
51123;BME280;37162;41.724;13.346;2023-06-26T09:16:40;96630.88;;;22.96;71.43
51123;BME280;37162;41.724;13.346;2023-06-26T09:19:13;96633.31;;;22.98;72.08
51123;BME280;37162;41.724;13.346;2023-06-26T09:21:43;96615.69;;;22.95;71.87
51123;BME280;37162;41.724;13.346;2023-06-26T09:24:09;96630.59;;;22.98;71.40
51123;BME280;37162;41.724;13.346;2023-06-26T09:26:39;96615.16;;;22.93;71.47
51123;BME280;37162;41.724;13.346;2023-06-26T09:29:05;96627.91;;;22.98;71.50
51123;BME280;37162;41.724;13.346;2023-06-26T09:31:33;96627.91;;;22.98;71.82
51123;BME280;37162;41.724;13.346;2023-06-26T09:33:59;96622.22;;;22.94;71.82
51123;BME280;37162;41.724;13.346;2023-06-26T09:36:27;96616.50;;;22.95;71.65
51123;BME280;37162;41.724;13.346;2023-06-26T09:38:53;96618.16;;;22.97;71.32
51123;BME280;37162;41.724;13.346;2023-06-26T09:41:19;96626.50;;;23.00;71.19
51123;BME280;37162;41.724;13.346;2023-06-26T09:43:48;96623.00;;;23.00;71.24
51123;BME280;37162;41.724;13.346;2023-06-26T09:46:25;96622.75;;;23.01;71.36
51123;BME280;37162;41.724;13.346;2023-06-26T09:49:11;96622.75;;;23.01;71.62
51123;BME280;37162;41.724;13.346;2023-06-26T09:51:40;96624.38;;;23.02;71.26
51123;BME280;37162;41.724;13.346;2023-06-26T09:54:06;96626.25;;;23.02;71.15
51123;BME280;37162;41.724;13.346;2023-06-26T09:56:33;96617.03;;;23.03;71.53
51123;BME280;37162;41.724;13.346;2023-06-26T09:59:03;96634.91;;;23.04;71.47
51123;BME280;37162;41.724;13.346;2023-06-26T10:01:30;96633.00;;;23.04;71.03
51123;BME280;37162;41.724;13.346;2023-06-26T10:03:56;96631.91;;;23.05;71.63
51123;BME280;37162;41.724;13.346;2023-06-26T10:08:56;96639.50;;;23.08;71.08
51123;BME280;37162;41.724;13.346;2023-06-26T10:11:22;96628.97;;;23.07;71.16
51123;BME280;37162;41.724;13.346;2023-06-26T10:13:51;96629.47;;;23.09;71.19
51123;BME280;37162;41.724;13.346;2023-06-26T10:16:26;96626.25;;;23.07;70.99
51123;BME280;37162;41.724;13.346;2023-06-26T10:18:58;96624.63;;;23.11;70.89
51123;BME280;37162;41.724;13.346;2023-06-26T10:21:26;96633.25;;;23.13;71.26
51123;BME280;37162;41.724;13.346;2023-06-26T10:23:53;96592.94;;;22.91;71.38
51123;BME280;37162;41.724;13.346;2023-06-26T10:26:21;96630.28;;;23.14;71.36
51123;BME280;37162;41.724;13.346;2023-06-26T10:28:48;96627.31;;;23.16;71.03
51123;BME280;37162;41.724;13.346;2023-06-26T10:31:20;96623.50;;;23.17;70.87
51123;BME280;37162;41.724;13.346;2023-06-26T10:33:47;96625.91;;;23.18;70.92
51123;BME280;37162;41.724;13.346;2023-06-26T10:36:17;96631.34;;;23.18;70.83
51123;BME280;37162;41.724;13.346;2023-06-26T10:38:55;96627.53;;;23.19;70.97
51123;BME280;37162;41.724;13.346;2023-06-26T10:41:22;96624.56;;;23.21;70.87
51123;BME280;37162;41.724;13.346;2023-06-26T10:44:06;96617.50;;;23.30;70.73
51123;BME280;37162;41.724;13.346;2023-06-26T10:46:47;96616.09;;;23.33;70.46
51123;BME280;37162;41.724;13.346;2023-06-26T10:49:13;96619.63;;;23.38;70.44
51123;BME280;37162;41.724;13.346;2023-06-26T10:51:46;96621.25;;;23.39;70.36
51123;BME280;37162;41.724;13.346;2023-06-26T10:54:14;96613.16;;;23.29;70.36
51123;BME280;37162;41.724;13.346;2023-06-26T10:56:45;96627.22;;;23.36;70.46
51123;BME280;37162;41.724;13.346;2023-06-26T10:59:14;96628.31;;;23.35;70.52
51123;BME280;37162;41.724;13.346;2023-06-26T11:01:41;96630.22;;;23.35;70.22
51123;BME280;37162;41.724;13.346;2023-06-26T11:04:10;96615.59;;;23.31;70.38
51123;BME280;37162;41.724;13.346;2023-06-26T11:06:39;96618.56;;;23.34;70.30
51123;BME280;37162;41.724;13.346;2023-06-26T11:14:22;96619.63;;;23.33;70.34
51123;BME280;37162;41.724;13.346;2023-06-26T11:16:48;96619.63;;;23.33;70.13
51123;BME280;37162;41.724;13.346;2023-06-26T11:19:16;96608.53;;;23.35;70.23
51123;BME280;37162;41.724;13.346;2023-06-26T11:21:42;96607.19;;;23.27;70.42
51123;BME280;37162;41.724;13.346;2023-06-26T11:24:09;96616.66;;;23.35;70.04
51123;BME280;37162;41.724;13.346;2023-06-26T11:26:41;96610.16;;;23.36;70.30
51123;BME280;37162;41.724;13.346;2023-06-26T11:29:09;96619.31;;;23.45;70.36
51123;BME280;37162;41.724;13.346;2023-06-26T11:31:40;96616.56;;;23.55;69.79
51123;BME280;37162;41.724;13.346;2023-06-26T11:34:10;96613.28;;;23.63;69.60
51123;BME280;37162;41.724;13.346;2023-06-26T11:36:37;96619.19;;;23.76;69.24
51123;BME280;37162;41.724;13.346;2023-06-26T11:39:05;96611.28;;;23.84;69.20
51123;BME280;37162;41.724;13.346;2023-06-26T11:41:33;96606.59;;;23.95;68.67
51123;BME280;37162;41.724;13.346;2023-06-26T11:44:06;96598.97;;;23.97;68.86
51123;BME280;37162;41.724;13.346;2023-06-26T11:46:34;96609.50;;;24.04;68.36
51123;BME280;37162;41.724;13.346;2023-06-26T11:49:03;96603.31;;;23.98;68.10
51123;BME280;37162;41.724;13.346;2023-06-26T11:51:29;96601.72;;;23.92;68.46
51123;BME280;37162;41.724;13.346;2023-06-26T11:53:54;96607.19;;;23.87;68.44
51123;BME280;37162;41.724;13.346;2023-06-26T11:56:20;96598.88;;;23.73;68.54
51123;BME280;37162;41.724;13.346;2023-06-26T11:59:06;96608.06;;;23.77;68.93
51123;BME280;37162;41.724;13.346;2023-06-26T12:01:43;96608.09;;;23.72;68.93
51123;BME280;37162;41.724;13.346;2023-06-26T12:04:11;96599.16;;;23.66;69.16
51123;BME280;37162;41.724;13.346;2023-06-26T12:06:39;96586.72;;;23.55;69.71
51123;BME280;37162;41.724;13.346;2023-06-26T12:09:08;96597.53;;;23.60;69.45
51123;BME280;37162;41.724;13.346;2023-06-26T12:11:35;96586.22;;;23.53;69.55
51123;BME280;37162;41.724;13.346;2023-06-26T12:14:02;96591.34;;;23.55;69.91
51123;BME280;37162;41.724;13.346;2023-06-26T12:16:29;96593.53;;;23.53;69.90
51123;BME280;37162;41.724;13.346;2023-06-26T12:19:03;96582.47;;;23.44;69.58
51123;BME280;37162;41.724;13.346;2023-06-26T12:24:04;96590.81;;;23.47;70.10
51123;BME280;37162;41.724;13.346;2023-06-26T12:26:30;96587.59;;;23.45;70.06
51123;BME280;37162;41.724;13.346;2023-06-26T12:29:06;96591.41;;;23.44;70.04
51123;BME280;37162;41.724;13.346;2023-06-26T12:31:32;96595.22;;;23.43;70.24
51123;BME280;37162;41.724;13.346;2023-06-26T12:33:59;96595.22;;;23.43;70.31
51123;BME280;37162;41.724;13.346;2023-06-26T12:36:25;96579.81;;;23.34;69.90
51123;BME280;37162;41.724;13.346;2023-06-26T12:38:54;96580.63;;;23.34;70.41
51123;BME280;37162;41.724;13.346;2023-06-26T12:41:19;96591.44;;;23.39;70.19
51123;BME280;37162;41.724;13.346;2023-06-26T12:43:46;96579.53;;;23.30;70.26
51123;BME280;37162;41.724;13.346;2023-06-26T12:46:12;96595.50;;;23.37;70.67
51123;BME280;37162;41.724;13.346;2023-06-26T12:48:43;96593.06;;;23.35;70.39
51123;BME280;37162;41.724;13.346;2023-06-26T12:51:15;96594.16;;;23.34;70.71
51123;BME280;37162;41.724;13.346;2023-06-26T12:53:41;96593.91;;;23.31;70.24
51123;BME280;37162;41.724;13.346;2023-06-26T12:56:07;96588.19;;;23.32;70.68
51123;BME280;37162;41.724;13.346;2023-06-26T12:58:34;96588.47;;;23.31;70.31
51123;BME280;37162;41.724;13.346;2023-06-26T13:00:59;96587.69;;;23.30;70.80
51123;BME280;37162;41.724;13.346;2023-06-26T13:03:25;96582.50;;;23.29;70.65
51123;BME280;37162;41.724;13.346;2023-06-26T13:05:50;96587.13;;;23.28;70.37
51123;BME280;37162;41.724;13.346;2023-06-26T13:08:16;96587.13;;;23.28;70.53